createdAt,value
2023-05-16T00:00:46.864Z,987.53
2023-05-16T00:01:46.894Z,987.54
2023-05-16T00:02:46.905Z,987.56
2023-05-16T00:03:46.898Z,987.56
2023-05-16T00:04:46.807Z,987.53
2023-05-16T00:05:46.809Z,987.53
2023-05-16T00:06:46.818Z,987.53
2023-05-16T00:07:46.809Z,987.50
2023-05-16T00:08:46.776Z,987.53
2023-05-16T00:09:46.766Z,987.47
2023-05-16T00:10:46.793Z,987.55
2023-05-16T00:11:46.790Z,987.52
2023-05-16T00:12:46.728Z,987.52
2023-05-16T00:13:46.720Z,987.49
2023-05-16T00:14:46.716Z,987.54
2023-05-16T00:15:46.717Z,987.51
2023-05-16T00:16:46.715Z,987.53
2023-05-16T00:17:46.785Z,987.49
2023-05-16T00:18:46.714Z,987.55
2023-05-16T00:19:46.674Z,987.55
2023-05-16T00:20:46.655Z,987.57
2023-05-16T00:21:46.651Z,987.53
2023-05-16T00:22:46.633Z,987.55
2023-05-16T00:23:46.617Z,987.52
2023-05-16T00:24:46.614Z,987.59
2023-05-16T00:25:46.649Z,987.57
2023-05-16T00:26:46.596Z,987.58
2023-05-16T00:27:46.574Z,987.63
2023-05-16T00:28:46.568Z,987.57
2023-05-16T00:29:46.570Z,987.57
2023-05-16T00:30:46.541Z,987.65
2023-05-16T00:31:46.559Z,987.61
2023-05-16T00:32:46.634Z,987.60
2023-05-16T00:33:46.510Z,987.60
2023-05-16T00:34:46.606Z,987.59
2023-05-16T00:35:46.491Z,987.57
2023-05-16T00:36:46.492Z,987.57
2023-05-16T00:37:46.481Z,987.55
2023-05-16T00:38:46.489Z,987.57
2023-05-16T00:39:46.468Z,987.58
2023-05-16T00:40:46.446Z,987.61
2023-05-16T00:41:46.423Z,987.58
2023-05-16T00:42:46.434Z,987.59
2023-05-16T00:43:46.424Z,987.60
2023-05-16T00:44:46.399Z,987.58
2023-05-16T00:45:46.503Z,987.56
2023-05-16T00:46:46.612Z,987.54
2023-05-16T00:47:46.390Z,987.59
2023-05-16T00:48:46.370Z,987.57
2023-05-16T00:49:46.363Z,987.58
2023-05-16T00:50:46.346Z,987.60
2023-05-16T00:51:46.330Z,987.57
2023-05-16T00:52:46.323Z,987.56
2023-05-16T00:53:46.311Z,987.54
2023-05-16T00:54:46.291Z,987.58
2023-05-16T00:55:46.278Z,987.53
2023-05-16T00:56:46.278Z,987.55
2023-05-16T00:57:46.269Z,987.54
2023-05-16T00:58:46.247Z,987.51
2023-05-16T00:59:46.233Z,987.53
2023-05-16T01:00:48.429Z,987.57
2023-05-16T01:01:46.240Z,987.58
2023-05-16T01:02:46.328Z,987.57
2023-05-16T01:03:46.493Z,987.58
2023-05-16T01:04:46.189Z,987.52
2023-05-16T01:05:46.811Z,987.53
2023-05-16T01:06:46.168Z,987.57
2023-05-16T01:07:46.179Z,987.56
2023-05-16T01:08:46.151Z,987.58
2023-05-16T01:09:46.144Z,987.57
2023-05-16T01:10:46.177Z,987.59
2023-05-16T01:11:46.122Z,987.59
2023-05-16T01:12:46.142Z,987.57
2023-05-16T01:13:46.131Z,987.58
2023-05-16T01:14:46.089Z,987.54
2023-05-16T01:15:46.095Z,987.60
2023-05-16T01:16:46.092Z,987.59
2023-05-16T01:17:46.112Z,987.60
2023-05-16T01:18:46.061Z,987.60
2023-05-16T01:19:46.030Z,987.58
2023-05-16T01:20:46.008Z,987.55
2023-05-16T01:21:46.029Z,987.58
2023-05-16T01:22:46.066Z,987.54
2023-05-16T01:23:45.984Z,987.58
2023-05-16T01:24:45.968Z,987.57
2023-05-16T01:25:45.960Z,987.57
2023-05-16T01:26:45.980Z,987.58
2023-05-16T01:27:45.941Z,987.62
2023-05-16T01:28:45.926Z,987.56
2023-05-16T01:29:45.931Z,987.58
2023-05-16T01:30:45.919Z,987.60
2023-05-16T01:31:45.962Z,987.59
2023-05-16T01:32:45.957Z,987.52
2023-05-16T01:33:45.898Z,987.57
2023-05-16T01:34:45.896Z,987.55
2023-05-16T01:35:45.883Z,987.54
2023-05-16T01:36:45.838Z,987.57
2023-05-16T01:37:45.847Z,987.55
2023-05-16T01:38:45.822Z,987.56
2023-05-16T01:39:45.812Z,987.54
2023-05-16T01:40:45.832Z,987.54
2023-05-16T01:41:45.790Z,987.55
2023-05-16T01:42:45.795Z,987.55
2023-05-16T01:43:45.768Z,987.51
2023-05-16T01:44:45.767Z,987.63
2023-05-16T01:45:45.823Z,987.52
2023-05-16T01:46:45.788Z,987.53
2023-05-16T01:47:45.748Z,987.51
2023-05-16T01:48:45.736Z,987.53
2023-05-16T01:49:45.735Z,987.58
2023-05-16T01:50:45.710Z,987.54
2023-05-16T01:51:45.701Z,987.52
2023-05-16T01:52:45.676Z,987.54
2023-05-16T01:53:45.696Z,987.56
2023-05-16T01:54:45.687Z,987.55
2023-05-16T01:55:45.667Z,987.60
2023-05-16T01:56:45.640Z,987.57
2023-05-16T01:57:45.623Z,987.56
2023-05-16T01:58:45.615Z,987.56
2023-05-16T01:59:45.617Z,987.60
2023-05-16T02:00:45.640Z,987.58
2023-05-16T02:01:45.595Z,987.61
2023-05-16T02:02:45.636Z,987.61
2023-05-16T02:03:45.642Z,987.65
2023-05-16T02:04:45.552Z,987.59
2023-05-16T02:05:45.529Z,987.62
2023-05-16T02:06:45.526Z,987.64
2023-05-16T02:07:45.524Z,987.60
2023-05-16T02:08:45.526Z,987.60
2023-05-16T02:09:45.531Z,987.62
2023-05-16T02:10:45.473Z,987.58
2023-05-16T02:11:45.475Z,987.56
2023-05-16T02:12:45.479Z,987.57
2023-05-16T02:13:45.458Z,987.61
2023-05-16T02:14:45.449Z,987.60
2023-05-16T02:15:45.426Z,987.58
2023-05-16T02:16:45.516Z,987.57
2023-05-16T02:17:45.501Z,987.56
2023-05-16T02:18:45.413Z,987.66
2023-05-16T02:19:45.396Z,987.63
2023-05-16T02:20:45.408Z,987.68
2023-05-16T02:21:45.376Z,987.71
2023-05-16T02:22:45.375Z,987.68
2023-05-16T02:23:45.337Z,987.66
2023-05-16T02:24:45.333Z,987.65
2023-05-16T02:25:45.334Z,987.72
2023-05-16T02:26:45.335Z,987.69
2023-05-16T02:27:45.333Z,987.67
2023-05-16T02:28:45.296Z,987.70
2023-05-16T02:29:45.276Z,987.71
2023-05-16T02:30:45.311Z,987.72
2023-05-16T02:31:45.268Z,987.69
2023-05-16T02:32:45.381Z,987.69
2023-05-16T02:33:45.249Z,987.69
2023-05-16T02:34:45.223Z,987.64
2023-05-16T02:35:45.208Z,987.64
2023-05-16T02:36:45.214Z,987.66
2023-05-16T02:37:45.199Z,987.69
2023-05-16T02:38:45.201Z,987.73
2023-05-16T02:39:45.180Z,987.71
2023-05-16T02:40:45.188Z,987.71
2023-05-16T02:41:45.188Z,987.72
2023-05-16T02:42:45.154Z,987.76
2023-05-16T02:43:46.868Z,987.81
2023-05-16T02:44:45.124Z,987.80
2023-05-16T02:45:45.132Z,987.83
2023-05-16T02:46:45.169Z,987.79
2023-05-16T02:47:45.102Z,987.79
2023-05-16T02:48:45.071Z,987.79
2023-05-16T02:49:45.066Z,987.76
2023-05-16T02:50:45.072Z,987.77
2023-05-16T02:51:45.062Z,987.79
2023-05-16T02:52:45.032Z,987.79
2023-05-16T02:53:45.059Z,987.79
2023-05-16T02:54:46.906Z,987.84
2023-05-16T02:55:46.024Z,987.83
2023-05-16T02:56:44.987Z,987.81
2023-05-16T02:57:45.008Z,987.77
2023-05-16T02:58:45.011Z,987.78
2023-05-16T02:59:44.986Z,987.86
2023-05-16T03:00:44.966Z,987.83
2023-05-16T03:01:45.014Z,987.82
2023-05-16T03:02:45.023Z,987.79
2023-05-16T03:03:45.007Z,987.87
2023-05-16T03:04:44.951Z,987.85
2023-05-16T03:05:44.896Z,987.85
2023-05-16T03:06:44.890Z,987.87
2023-05-16T03:07:44.881Z,987.84
2023-05-16T03:08:44.876Z,987.81
2023-05-16T03:09:44.872Z,987.79
2023-05-16T03:10:44.849Z,987.84
2023-05-16T03:11:44.845Z,987.86
2023-05-16T03:12:44.829Z,987.82
2023-05-16T03:13:44.828Z,987.84
2023-05-16T03:14:44.821Z,987.86
2023-05-16T03:15:44.858Z,987.90
2023-05-16T03:16:44.882Z,987.86
2023-05-16T03:17:44.872Z,987.83
2023-05-16T03:18:44.787Z,987.88
2023-05-16T03:19:44.752Z,987.93
2023-05-16T03:20:44.741Z,987.88
2023-05-16T03:21:44.739Z,987.84
2023-05-16T03:22:44.724Z,987.90
2023-05-16T03:23:44.704Z,987.89
2023-05-16T03:24:44.872Z,987.91
2023-05-16T03:25:44.716Z,987.91
2023-05-16T03:26:44.704Z,987.91
2023-05-16T03:27:44.678Z,987.93
2023-05-16T03:28:44.668Z,987.92
2023-05-16T03:29:44.643Z,987.91
2023-05-16T03:30:44.689Z,987.93
2023-05-16T03:31:44.676Z,987.91
2023-05-16T03:32:44.664Z,987.94
2023-05-16T03:33:44.608Z,987.91
2023-05-16T03:34:44.610Z,987.96
2023-05-16T03:35:44.603Z,987.91
2023-05-16T03:36:44.574Z,987.93
2023-05-16T03:37:44.596Z,987.98
2023-05-16T03:38:44.563Z,988.00
2023-05-16T03:39:44.559Z,987.98
2023-05-16T03:40:44.534Z,987.98
2023-05-16T03:41:44.529Z,987.98
2023-05-16T03:42:44.524Z,987.97
2023-05-16T03:43:44.514Z,988.03
2023-05-16T03:44:44.501Z,988.03
2023-05-16T03:45:44.505Z,988.02
2023-05-16T03:46:44.472Z,988.04
2023-05-16T03:47:44.489Z,988.12
2023-05-16T03:48:44.458Z,988.08
2023-05-16T03:49:44.457Z,988.10
2023-05-16T03:50:44.477Z,988.16
2023-05-16T03:51:44.425Z,988.19
2023-05-16T03:52:44.435Z,988.15
2023-05-16T03:53:44.420Z,988.17
2023-05-16T03:54:44.404Z,988.13
2023-05-16T03:55:45.478Z,988.18
2023-05-16T03:56:44.373Z,988.19
2023-05-16T03:57:44.352Z,988.19
2023-05-16T03:58:44.380Z,988.26
2023-05-16T03:59:44.322Z,988.26
2023-05-16T04:00:44.321Z,988.24
2023-05-16T04:01:44.375Z,988.25
2023-05-16T04:02:44.550Z,988.25
2023-05-16T04:03:44.368Z,988.28
2023-05-16T04:04:44.282Z,988.27
2023-05-16T04:05:44.367Z,988.32
2023-05-16T04:06:44.245Z,988.32
2023-05-16T04:07:44.260Z,988.31
2023-05-16T04:08:44.245Z,988.30
2023-05-16T04:09:44.247Z,988.36
2023-05-16T04:10:44.216Z,988.31
2023-05-16T04:11:44.201Z,988.35
2023-05-16T04:12:44.225Z,988.35
2023-05-16T04:13:44.263Z,988.36
2023-05-16T04:14:44.166Z,988.41
2023-05-16T04:15:44.172Z,988.38
2023-05-16T04:16:44.202Z,988.38
2023-05-16T04:17:44.209Z,988.43
2023-05-16T04:18:44.152Z,988.41
2023-05-16T04:19:44.141Z,988.40
2023-05-16T04:20:44.110Z,988.42
2023-05-16T04:21:44.104Z,988.41
2023-05-16T04:22:44.096Z,988.43
2023-05-16T04:23:44.073Z,988.38
2023-05-16T04:24:44.073Z,988.44
2023-05-16T04:25:44.065Z,988.47
2023-05-16T04:26:44.039Z,988.45
2023-05-16T04:27:44.047Z,988.49
2023-05-16T04:28:44.026Z,988.45
2023-05-16T04:29:44.026Z,988.46
2023-05-16T04:30:44.007Z,988.46
2023-05-16T04:31:44.044Z,988.49
2023-05-16T04:32:44.013Z,988.47
2023-05-16T04:33:43.964Z,988.54
2023-05-16T04:34:43.968Z,988.49
2023-05-16T04:35:43.969Z,988.53
2023-05-16T04:36:43.967Z,988.59
2023-05-16T04:37:43.921Z,988.59
2023-05-16T04:38:43.918Z,988.54
2023-05-16T04:39:43.904Z,988.62
2023-05-16T04:40:43.959Z,988.60
2023-05-16T04:41:43.918Z,988.68
2023-05-16T04:42:43.867Z,988.57
2023-05-16T04:43:43.870Z,988.63
2023-05-16T04:44:43.880Z,988.63
2023-05-16T04:45:43.870Z,988.64
2023-05-16T04:46:43.892Z,988.66
2023-05-16T04:47:43.858Z,988.60
2023-05-16T04:48:43.806Z,988.64
2023-05-16T04:49:43.804Z,988.64
2023-05-16T04:50:43.808Z,988.65
2023-05-16T04:51:43.803Z,988.68
2023-05-16T04:52:43.767Z,988.70
2023-05-16T04:53:43.764Z,988.72
2023-05-16T04:54:43.756Z,988.74
2023-05-16T04:55:43.753Z,988.73
2023-05-16T04:56:43.753Z,988.76
2023-05-16T04:57:43.748Z,988.78
2023-05-16T04:58:43.715Z,988.75
2023-05-16T04:59:43.720Z,988.78
2023-05-16T05:00:43.683Z,988.79
2023-05-16T05:01:43.707Z,988.78
2023-05-16T05:02:43.713Z,988.80
2023-05-16T05:03:44.665Z,988.79
2023-05-16T05:04:44.106Z,988.78
2023-05-16T05:05:43.659Z,988.75
2023-05-16T05:06:44.435Z,988.80
2023-05-16T05:07:43.620Z,988.81
2023-05-16T05:08:43.605Z,988.85
2023-05-16T05:09:43.657Z,988.81
2023-05-16T05:10:43.583Z,988.85
2023-05-16T05:11:43.564Z,988.87
2023-05-16T05:12:43.551Z,988.83
2023-05-16T05:13:43.551Z,988.87
2023-05-16T05:14:43.550Z,988.88
2023-05-16T05:15:43.523Z,988.90
2023-05-16T05:16:43.509Z,988.96
2023-05-16T05:17:43.613Z,988.91
2023-05-16T05:18:43.634Z,988.93
2023-05-16T05:19:43.503Z,988.97
2023-05-16T05:20:43.464Z,988.96
2023-05-16T05:21:43.469Z,989.03
2023-05-16T05:22:43.456Z,989.06
2023-05-16T05:23:43.481Z,989.02
2023-05-16T05:26:00.610Z,989.07
2023-05-16T05:27:00.626Z,989.08
2023-05-16T05:28:00.719Z,989.08
2023-05-16T05:29:05.509Z,989.10
2023-05-16T05:30:01.567Z,989.13
2023-05-16T05:31:00.559Z,989.13
2023-05-16T05:32:00.628Z,989.23
2023-05-16T05:33:00.651Z,989.28
2023-05-16T05:34:00.519Z,989.23
2023-05-16T05:35:00.600Z,989.29
2023-05-16T05:36:02.524Z,989.30
2023-05-16T05:37:00.493Z,989.35
2023-05-16T05:38:00.484Z,989.40
2023-05-16T05:39:00.548Z,989.40
2023-05-16T05:40:00.469Z,989.38
2023-05-16T05:41:00.435Z,989.41
2023-05-16T05:42:00.439Z,989.39
2023-05-16T05:43:00.438Z,989.39
2023-05-16T05:44:00.410Z,989.46
2023-05-16T05:45:00.395Z,989.44
2023-05-16T05:46:00.438Z,989.52
2023-05-16T05:47:00.395Z,989.45
2023-05-16T05:48:00.367Z,989.53
2023-05-16T05:49:00.350Z,989.56
2023-05-16T05:50:00.350Z,989.61
2023-05-16T05:51:00.327Z,989.57
2023-05-16T05:52:00.347Z,989.59
2023-05-16T05:53:00.314Z,989.57
2023-05-16T05:54:00.300Z,989.64
2023-05-16T05:55:00.309Z,989.62
2023-05-16T05:56:00.296Z,989.60
2023-05-16T05:57:00.282Z,989.65
2023-05-16T05:58:00.263Z,989.60
2023-05-16T05:59:00.256Z,989.69
2023-05-16T06:00:00.241Z,989.75
2023-05-16T06:01:00.304Z,989.67
2023-05-16T06:02:00.279Z,989.73
2023-05-16T06:03:00.247Z,989.70
2023-05-16T06:04:02.177Z,989.77
2023-05-16T06:05:00.255Z,989.74
2023-05-16T06:06:00.239Z,989.74
2023-05-16T06:07:00.161Z,989.80
2023-05-16T06:08:00.153Z,989.88
2023-05-16T06:09:00.149Z,989.81
2023-05-16T06:10:00.229Z,989.84
2023-05-16T06:11:00.176Z,989.85
2023-05-16T06:12:00.160Z,989.88
2023-05-16T06:13:00.121Z,989.88
2023-05-16T06:14:00.141Z,989.90
2023-05-16T06:15:00.107Z,989.88
2023-05-16T06:16:00.123Z,989.89
2023-05-16T06:17:00.075Z,989.90
2023-05-16T06:18:00.114Z,989.88
2023-05-16T06:19:00.099Z,989.90
2023-05-16T06:20:00.068Z,989.98
2023-05-16T06:21:00.042Z,989.96
2023-05-16T06:22:00.005Z,989.93
2023-05-16T06:23:00.000Z,990.02
2023-05-16T06:23:59.982Z,989.98
2023-05-16T06:24:59.988Z,990.00
2023-05-16T06:25:59.976Z,990.06
2023-05-16T06:27:00.049Z,990.01
2023-05-16T06:27:59.956Z,990.05
2023-05-16T06:28:59.928Z,990.04
2023-05-16T06:29:59.932Z,990.09
2023-05-16T06:30:59.926Z,990.09
2023-05-16T06:32:00.047Z,990.11
2023-05-16T06:32:59.916Z,990.13
2023-05-16T06:33:59.879Z,990.16
2023-05-16T06:34:59.882Z,990.17
2023-05-16T06:35:59.864Z,990.20
2023-05-16T06:36:59.958Z,990.18
2023-05-16T06:37:59.844Z,990.23
2023-05-16T06:38:59.828Z,990.26
2023-05-16T06:39:59.828Z,990.19
2023-05-16T06:40:59.803Z,990.23
2023-05-16T06:41:59.819Z,990.26
2023-05-16T06:42:59.813Z,990.26
2023-05-16T06:43:59.814Z,990.25
2023-05-16T06:44:59.801Z,990.28
2023-05-16T06:45:59.815Z,990.30
2023-05-16T06:46:59.811Z,990.30
2023-05-16T06:47:59.808Z,990.27
2023-05-16T06:48:59.755Z,990.35
2023-05-16T06:49:59.758Z,990.33
2023-05-16T06:50:59.728Z,990.35
2023-05-16T06:51:59.767Z,990.33
2023-05-16T06:52:59.712Z,990.38
2023-05-16T06:54:00.317Z,990.41
2023-05-16T06:54:59.682Z,990.42
2023-05-16T06:55:59.674Z,990.40
2023-05-16T06:56:59.660Z,990.41
2023-05-16T06:57:59.697Z,990.41
2023-05-16T06:58:59.673Z,990.41
2023-05-16T06:59:59.647Z,990.38
2023-05-16T07:00:59.677Z,990.48
2023-05-16T07:01:59.641Z,990.48
2023-05-16T07:02:59.685Z,990.51
2023-05-16T07:03:59.656Z,990.46
2023-05-16T07:04:59.600Z,990.55
2023-05-16T07:05:59.606Z,990.53
2023-05-16T07:06:59.634Z,990.54
2023-05-16T07:07:59.589Z,990.59
2023-05-16T07:08:59.549Z,990.55
2023-05-16T07:09:59.526Z,990.54
2023-05-16T07:10:59.518Z,990.62
2023-05-16T07:11:59.532Z,990.61
2023-05-16T07:12:59.506Z,990.63
2023-05-16T07:13:59.490Z,990.67
2023-05-16T07:14:59.527Z,990.65
2023-05-16T07:15:59.527Z,990.62
2023-05-16T07:16:59.637Z,990.65
2023-05-16T07:18:00.153Z,990.67
2023-05-16T07:18:59.482Z,990.63
2023-05-16T07:19:59.416Z,990.72
2023-05-16T07:20:59.615Z,990.76
2023-05-16T07:21:59.425Z,990.69
2023-05-16T07:22:59.447Z,990.75
2023-05-16T07:23:59.375Z,990.72
2023-05-16T07:24:59.379Z,990.75
2023-05-16T07:25:59.364Z,990.78
2023-05-16T07:26:59.356Z,990.78
2023-05-16T07:27:59.405Z,990.87
2023-05-16T07:28:59.317Z,990.78
2023-05-16T07:29:59.370Z,990.78
2023-05-16T07:30:59.613Z,990.81
2023-05-16T07:31:59.636Z,990.87
2023-05-16T07:33:00.067Z,990.83
2023-05-16T07:33:59.279Z,990.86
2023-05-16T07:34:59.264Z,990.82
2023-05-16T07:36:12.171Z,990.84
2023-05-16T07:37:00.274Z,990.91
2023-05-16T07:37:59.266Z,990.94
2023-05-16T07:38:59.277Z,990.85
2023-05-16T07:39:59.204Z,990.85
2023-05-16T07:40:59.230Z,990.95
2023-05-16T07:41:59.179Z,990.95
2023-05-16T07:42:59.199Z,990.90
2023-05-16T07:43:59.163Z,990.99
2023-05-16T07:44:59.159Z,990.92
2023-05-16T07:45:59.275Z,990.92
2023-05-16T07:46:59.149Z,990.94
2023-05-16T07:47:59.266Z,990.93
2023-05-16T07:48:59.104Z,991.00
2023-05-16T07:49:59.102Z,990.98
2023-05-16T07:50:59.128Z,990.99
2023-05-16T07:51:59.126Z,991.00
2023-05-16T07:52:59.126Z,991.03
2023-05-16T07:53:59.044Z,991.01
2023-05-16T07:54:59.081Z,991.02
2023-05-16T07:55:59.803Z,991.03
2023-05-16T07:56:59.025Z,991.01
2023-05-16T07:57:59.040Z,991.03
2023-05-16T07:59:00.569Z,991.02
2023-05-16T07:59:59.081Z,991.03
2023-05-16T08:00:59.013Z,991.07
2023-05-16T08:01:59.003Z,991.05
2023-05-16T08:02:59.148Z,991.04
2023-05-16T08:03:59.014Z,991.06
2023-05-16T08:04:59.049Z,991.06
2023-05-16T08:05:59.000Z,991.09
2023-05-16T08:06:58.924Z,991.13
2023-05-16T08:07:58.901Z,991.03
2023-05-16T08:08:58.908Z,991.12
2023-05-16T08:09:58.924Z,991.03
2023-05-16T08:10:58.882Z,991.08
2023-05-16T08:11:58.870Z,991.07
2023-05-16T08:12:58.873Z,991.10
2023-05-16T08:13:58.856Z,991.10
2023-05-16T08:14:58.974Z,991.14
2023-05-16T08:15:58.908Z,991.10
2023-05-16T08:16:59.542Z,991.10
2023-05-16T08:17:59.586Z,991.10
2023-05-16T08:18:58.891Z,991.09
2023-05-16T08:19:58.786Z,991.09
2023-05-16T08:20:58.808Z,991.06
2023-05-16T08:21:58.859Z,991.05
2023-05-16T08:23:00.054Z,991.05
2023-05-16T08:23:58.734Z,991.04
2023-05-16T08:24:58.754Z,991.08
2023-05-16T08:25:59.652Z,991.06
2023-05-16T08:26:58.774Z,990.99
2023-05-16T08:27:58.713Z,991.03
2023-05-16T08:28:58.896Z,990.99
2023-05-16T08:29:58.672Z,990.93
2023-05-16T08:30:58.724Z,990.94
2023-05-16T08:31:58.723Z,991.02
2023-05-16T08:32:58.791Z,991.00
2023-05-16T08:33:58.626Z,990.95
2023-05-16T08:34:58.761Z,991.11
2023-05-16T08:35:58.658Z,990.94
2023-05-16T08:36:58.691Z,991.05
2023-05-16T08:37:58.659Z,991.04
2023-05-16T08:38:58.584Z,991.08
2023-05-16T08:39:58.607Z,991.11
2023-05-16T08:40:58.603Z,991.07
2023-05-16T08:41:58.803Z,991.05
2023-05-16T08:42:58.590Z,991.11
2023-05-16T08:43:59.136Z,991.12
2023-05-16T08:44:58.504Z,991.12
2023-05-16T08:45:58.573Z,991.17
2023-05-16T08:46:58.638Z,991.21
2023-05-16T08:47:58.540Z,991.26
2023-05-16T08:48:58.462Z,991.22
2023-05-16T08:49:58.486Z,991.24
2023-05-16T08:50:58.495Z,991.25
2023-05-16T08:51:58.530Z,991.16
2023-05-16T08:52:58.437Z,991.17
2023-05-16T08:53:58.506Z,991.16
2023-05-16T08:55:09.364Z,991.17
2023-05-16T08:55:59.510Z,991.16
2023-05-16T08:56:59.056Z,991.14
2023-05-16T08:57:58.394Z,991.11
2023-05-16T08:58:59.231Z,991.09
2023-05-16T08:59:59.313Z,991.07
2023-05-16T09:01:01.195Z,991.14
2023-05-16T09:01:59.155Z,991.10
2023-05-16T09:02:58.558Z,991.12
2023-05-16T09:03:58.365Z,991.08
2023-05-16T09:04:59.060Z,991.18
2023-05-16T09:05:58.304Z,991.16
2023-05-16T09:06:58.334Z,991.15
2023-05-16T09:07:58.291Z,991.21
2023-05-16T09:08:58.319Z,991.20
2023-05-16T09:09:58.600Z,991.16
2023-05-16T09:10:58.308Z,991.30
2023-05-16T09:11:58.275Z,991.24
2023-05-16T09:12:59.343Z,991.22
2023-05-16T09:13:59.139Z,991.21
2023-05-16T09:14:59.066Z,991.31
2023-05-16T09:15:58.211Z,991.29
2023-05-16T09:16:58.266Z,991.21
2023-05-16T09:17:58.288Z,991.24
2023-05-16T09:18:59.173Z,991.34
2023-05-16T09:19:58.180Z,991.21
2023-05-16T09:20:58.144Z,991.22
2023-05-16T09:21:58.146Z,991.22
2023-05-16T09:22:58.174Z,991.21
2023-05-16T09:23:58.179Z,991.19
2023-05-16T09:24:58.150Z,991.22
2023-05-16T09:25:58.165Z,991.20
2023-05-16T09:26:58.110Z,991.23
2023-05-16T09:27:58.068Z,991.23
2023-05-16T09:28:58.078Z,991.26
2023-05-16T09:29:58.118Z,991.28
2023-05-16T09:30:58.048Z,991.24
2023-05-16T09:31:58.029Z,991.23
2023-05-16T09:32:58.097Z,991.25
2023-05-16T09:33:58.008Z,991.25
2023-05-16T09:34:58.003Z,991.28
2023-05-16T09:35:58.008Z,991.28
2023-05-16T09:36:58.001Z,991.20
2023-05-16T09:37:57.989Z,991.25
2023-05-16T09:38:58.022Z,991.17
2023-05-16T09:39:58.015Z,991.17
2023-05-16T09:40:57.976Z,991.10
2023-05-16T09:41:58.005Z,991.15
2023-05-16T09:42:57.956Z,991.11
2023-05-16T09:43:57.942Z,991.16
2023-05-16T09:44:57.889Z,991.16
2023-05-16T09:45:57.929Z,991.11
2023-05-16T09:46:58.143Z,991.09
2023-05-16T09:47:57.955Z,991.12
2023-05-16T09:48:57.896Z,991.21
2023-05-16T09:49:57.825Z,991.12
2023-05-16T09:50:57.832Z,991.23
2023-05-16T09:51:57.812Z,991.15
2023-05-16T09:52:57.829Z,991.15
2023-05-16T09:53:57.850Z,991.25
2023-05-16T09:54:57.840Z,991.10
2023-05-16T09:55:57.761Z,991.16
2023-05-16T09:56:57.754Z,991.17
2023-05-16T09:57:57.881Z,991.23
2023-05-16T09:58:57.752Z,991.27
2023-05-16T09:59:57.760Z,991.24
2023-05-16T10:00:57.722Z,991.23
2023-05-16T10:01:57.797Z,991.19
2023-05-16T10:02:57.826Z,991.18
2023-05-16T10:03:57.749Z,991.28
2023-05-16T10:04:57.708Z,991.25
2023-05-16T10:05:57.662Z,991.22
2023-05-16T10:06:57.674Z,991.28
2023-05-16T10:07:57.655Z,991.23
2023-05-16T10:08:59.719Z,991.21
2023-05-16T10:09:57.636Z,991.17
2023-05-16T10:10:57.725Z,991.18
2023-05-16T10:11:57.620Z,991.14
2023-05-16T10:12:57.655Z,991.14
2023-05-16T10:13:57.574Z,991.10
2023-05-16T10:14:57.629Z,991.14
2023-05-16T10:15:57.624Z,991.19
2023-05-16T10:16:57.631Z,991.22
2023-05-16T10:17:57.554Z,991.20
2023-05-16T10:18:57.672Z,991.22
2023-05-16T10:19:57.515Z,991.21
2023-05-16T10:20:57.533Z,991.19
2023-05-16T10:21:57.587Z,991.21
2023-05-16T10:22:57.506Z,991.23
2023-05-16T10:23:57.480Z,991.23
2023-05-16T10:24:57.534Z,991.19
2023-05-16T10:25:57.505Z,991.18
2023-05-16T10:26:57.477Z,991.19
2023-05-16T10:27:57.436Z,991.12
2023-05-16T10:28:57.452Z,991.22
2023-05-16T10:29:57.400Z,991.13
2023-05-16T10:30:57.461Z,991.10
2023-05-16T10:31:57.434Z,991.12
2023-05-16T10:32:57.408Z,991.08
2023-05-16T10:33:57.359Z,991.06
2023-05-16T10:34:57.391Z,991.07
2023-05-16T10:35:57.354Z,991.00
2023-05-16T10:36:57.393Z,990.96
2023-05-16T10:37:57.396Z,990.96
2023-05-16T10:38:57.309Z,991.02
2023-05-16T10:39:57.298Z,991.05
2023-05-16T10:40:57.326Z,991.09
2023-05-16T10:41:57.320Z,990.95
2023-05-16T10:42:57.331Z,990.99
2023-05-16T10:43:57.243Z,991.00
2023-05-16T10:45:05.019Z,990.92
2023-05-16T10:45:58.341Z,991.08
2023-05-16T10:46:57.272Z,990.98
2023-05-16T10:47:57.296Z,991.01
2023-05-16T10:48:58.580Z,991.00
2023-05-16T10:49:58.228Z,991.05
2023-05-16T10:50:57.184Z,991.01
2023-05-16T10:51:57.174Z,991.05
2023-05-16T10:52:57.218Z,991.07
2023-05-16T10:53:57.183Z,990.96
2023-05-16T10:54:57.229Z,991.01
2023-05-16T10:55:57.135Z,991.03
2023-05-16T10:56:57.141Z,990.97
2023-05-16T10:57:57.162Z,990.87
2023-05-16T10:58:57.166Z,990.88
2023-05-16T10:59:58.523Z,990.94
2023-05-16T11:00:57.115Z,990.91
2023-05-16T11:01:57.552Z,990.92
2023-05-16T11:02:57.214Z,990.88
2023-05-16T11:03:57.277Z,990.86
2023-05-16T11:04:57.050Z,990.94
2023-05-16T11:05:57.022Z,990.93
2023-05-16T11:06:57.075Z,990.85
2023-05-16T11:07:57.009Z,990.86
2023-05-16T11:08:57.099Z,990.74
2023-05-16T11:09:57.155Z,990.93
2023-05-16T11:10:57.030Z,990.77
2023-05-16T11:11:57.010Z,990.91
2023-05-16T11:12:57.593Z,991.09
2023-05-16T11:13:56.948Z,990.91
2023-05-16T11:14:56.967Z,990.93
2023-05-16T11:15:56.937Z,990.98
2023-05-16T11:16:56.970Z,991.07
2023-05-16T11:17:56.950Z,991.02
2023-05-16T11:18:56.920Z,991.09
2023-05-16T11:19:56.977Z,991.02
2023-05-16T11:20:56.966Z,990.92
2023-05-16T11:21:56.876Z,990.92
2023-05-16T11:22:56.891Z,990.97
2023-05-16T11:23:56.888Z,990.97
2023-05-16T11:24:56.872Z,990.87
2023-05-16T11:25:56.909Z,991.01
2023-05-16T11:26:56.797Z,990.99
2023-05-16T11:27:56.827Z,990.95
2023-05-16T11:28:56.928Z,990.95
2023-05-16T11:29:56.768Z,991.11
2023-05-16T11:30:56.860Z,990.98
2023-05-16T11:31:57.065Z,990.89
2023-05-16T11:32:56.806Z,990.91
2023-05-16T11:33:57.672Z,990.96
2023-05-16T11:34:56.729Z,991.01
2023-05-16T11:36:11.142Z,990.98
2023-05-16T11:36:57.976Z,990.95
2023-05-16T11:37:56.679Z,990.99
2023-05-16T11:38:56.890Z,991.08
2023-05-16T11:39:56.758Z,991.04
2023-05-16T11:40:57.199Z,991.03
2023-05-16T11:41:56.680Z,991.04
2023-05-16T11:42:56.678Z,991.06
2023-05-16T11:43:56.634Z,990.97
2023-05-16T11:44:56.912Z,990.95
2023-05-16T11:45:56.610Z,990.89
2023-05-16T11:46:56.782Z,990.85
2023-05-16T11:47:56.598Z,991.01
2023-05-16T11:48:56.571Z,991.00
2023-05-16T11:49:56.573Z,990.99
2023-05-16T11:50:56.576Z,990.97
2023-05-16T11:51:56.555Z,990.88
2023-05-16T11:52:56.703Z,990.92
2023-05-16T11:53:56.505Z,991.06
2023-05-16T11:54:56.500Z,990.94
2023-05-16T11:55:56.927Z,990.98
2023-05-16T11:56:56.501Z,990.95
2023-05-16T11:57:56.483Z,990.91
2023-05-16T11:58:56.458Z,990.99
2023-05-16T11:59:56.495Z,990.93
2023-05-16T12:00:56.769Z,990.98
2023-05-16T12:01:56.498Z,990.95
2023-05-16T12:02:56.545Z,990.86
2023-05-16T12:03:56.531Z,990.96
2023-05-16T12:04:56.459Z,990.90
2023-05-16T12:05:56.416Z,990.91
2023-05-16T12:06:56.394Z,990.68
2023-05-16T12:07:56.384Z,990.84
2023-05-16T12:08:56.352Z,990.83
2023-05-16T12:09:56.332Z,990.95
2023-05-16T12:10:56.406Z,990.94
2023-05-16T12:11:56.355Z,990.97
2023-05-16T12:12:56.401Z,991.01
2023-05-16T12:13:56.311Z,991.03
2023-05-16T12:14:56.336Z,990.94
2023-05-16T12:15:56.311Z,990.92
2023-05-16T12:16:56.373Z,990.92
2023-05-16T12:17:56.357Z,990.96
2023-05-16T12:18:56.311Z,990.96
2023-05-16T12:19:56.263Z,991.03
2023-05-16T12:20:56.242Z,991.00
2023-05-16T12:21:56.239Z,991.10
2023-05-16T12:22:56.211Z,990.98
2023-05-16T12:23:56.230Z,991.01
2023-05-16T12:24:56.232Z,991.05
2023-05-16T12:25:56.188Z,991.01
2023-05-16T12:26:56.172Z,990.97
2023-05-16T12:27:56.160Z,991.02
2023-05-16T12:28:56.178Z,991.00
2023-05-16T12:29:56.177Z,990.97